Time;durP1;ratioP1;P1;durP2;ratioP2;P2;SDS_P1;SDS_P2;PMS_P1;PMS_P2;Temp;Humidity;BMP_temperature;BMP_pressure;BME280_temperature;BME280_humidity;BME280_pressure;Samples;Min_cycle;Max_cycle;Signal;HPM_P1;HPM_P2
2022/06/04 00:02:07;;;;;;;11.77;5.88;;;11.10;99.90;;;;;;4771287;30;20062;-66
2022/06/04 00:04:32;;;;;;;9.50;5.85;;;11.50;99.90;;;;;;4772225;30;20109;-66
2022/06/04 00:06:58;;;;;;;8.38;5.65;;;11.10;99.90;;;;;;4770990;30;20089;-67
2022/06/04 00:09:27;;;;;;;6.47;5.68;;;11.50;99.90;;;;;;4756600;30;20397;-67
2022/06/04 00:17:22;;;;;;;11.13;5.95;;;11.10;99.90;;;;;;4771992;30;20358;-66
2022/06/04 00:19:48;;;;;;;7.22;5.32;;;11.10;99.90;;;;;;4771683;30;20056;-66
2022/06/04 00:22:15;;;;;;;6.65;5.28;;;11.00;99.90;;;;;;4770346;30;20127;-66
2022/06/04 00:24:41;;;;;;;9.20;5.40;;;11.30;99.90;;;;;;4756306;30;20044;-67
2022/06/04 00:27:17;;;;;;;10.07;5.88;;;11.10;99.90;;;;;;4771087;30;20050;-66
2022/06/04 00:29:43;;;;;;;8.57;5.57;;;11.10;99.90;;;;;;4772317;30;20053;-66
2022/06/04 00:32:09;;;;;;;9.75;5.93;;;11.00;99.90;;;;;;4769513;30;20441;-67
2022/06/04 00:34:35;;;;;;;8.32;5.57;;;11.00;99.90;;;;;;4740154;30;20135;-67
2022/06/04 00:37:00;;;;;;;10.20;5.80;;;11.00;99.90;;;;;;4772229;30;20134;-66
2022/06/04 00:39:26;;;;;;;8.98;6.38;;;10.90;99.90;;;;;;4772061;30;20047;-66
2022/06/04 00:42:12;;;;;;;13.00;5.95;;;11.00;99.90;;;;;;4753735;30;20055;-66
2022/06/04 00:45:32;;;;;;;8.35;5.65;;;11.00;99.90;;;;;;4771013;30;20126;-67
2022/06/04 00:47:59;;;;;;;9.02;6.18;;;10.90;99.90;;;;;;4718798;30;20544;-66
2022/06/04 00:50:25;;;;;;;11.65;6.22;;;10.90;99.90;;;;;;4767536;30;20430;-67
2022/06/04 00:52:52;;;;;;;12.23;6.82;;;10.80;99.90;;;;;;4770188;30;20050;-67
2022/06/04 00:55:19;;;;;;;10.75;6.45;;;10.90;99.90;;;;;;4754462;30;20050;-67
2022/06/04 00:58:03;;;;;;;8.93;6.53;;;11.00;99.90;;;;;;4755595;30;20134;-67
2022/06/04 01:00:45;;;;;;;10.52;6.22;;;11.00;99.90;;;;;;4770275;30;20063;-67
2022/06/04 01:03:54;;;;;;;11.07;6.70;;;10.90;99.90;;;;;;4752645;30;20094;-67
2022/06/04 01:06:39;;;;;;;9.80;6.18;;;10.90;99.90;;;;;;4769506;30;20067;-67
2022/06/04 01:09:18;;;;;;;10.90;6.60;;;10.80;99.90;;;;;;4771625;30;20089;-67
2022/06/04 01:14:44;;;;;;;10.65;6.65;;;10.80;99.90;;;;;;4756860;30;20055;-67
2022/06/04 01:17:20;;;;;;;9.88;6.90;;;10.80;99.90;;;;;;4770797;30;20048;-67
2022/06/04 01:19:46;;;;;;;12.35;7.15;;;10.80;99.90;;;;;;4770840;30;20064;-67
2022/06/04 01:22:41;;;;;;;13.20;7.47;;;10.70;99.90;;;;;;4768791;30;20201;-67
2022/06/04 01:25:10;;;;;;;11.55;7.20;;;10.90;99.90;;;;;;4770317;30;20051;-67
2022/06/04 01:28:01;;;;;;;10.02;6.80;;;10.70;99.90;;;;;;4770226;30;20078;-66
2022/06/04 01:30:51;;;;;;;10.15;7.22;;;11.40;99.90;;;;;;4771313;30;20051;-66
2022/06/04 01:33:23;;;;;;;10.45;7.03;;;10.80;99.90;;;;;;4769695;30;20086;-67
2022/06/04 01:36:13;;;;;;;13.52;6.97;;;10.80;99.90;;;;;;4771186;30;20095;-67
2022/06/04 01:38:50;;;;;;;13.75;7.90;;;11.00;99.90;;;;;;4769988;30;20135;-67
2022/06/04 01:41:22;;;;;;;9.52;7.05;;;10.70;99.90;;;;;;4770556;30;20299;-67
2022/06/04 01:43:50;;;;;;;12.52;7.32;;;10.60;99.90;;;;;;4769689;30;20058;-67
2022/06/04 01:46:34;;;;;;;15.27;7.68;;;10.70;99.90;;;;;;4769737;30;20335;-66
2022/06/04 01:49:11;;;;;;;19.35;8.10;;;10.70;99.90;;;;;;4770796;30;20050;-67
2022/06/04 01:51:37;;;;;;;15.55;7.70;;;10.70;99.90;;;;;;4769689;30;20052;-66
2022/06/04 01:54:33;;;;;;;15.23;9.73;;;10.60;99.90;;;;;;4768844;30;20054;-67
2022/06/04 01:57:05;;;;;;;16.05;8.10;;;10.60;99.90;;;;;;4738633;30;20135;-67
2022/06/04 01:59:44;;;;;;;13.10;8.05;;;10.60;99.90;;;;;;4770303;30;20055;-67
2022/06/04 02:02:19;;;;;;;14.32;7.88;;;12.00;99.90;;;;;;4754429;30;20059;-66
2022/06/04 02:04:50;;;;;;;18.52;9.32;;;10.90;99.90;;;;;;4753121;30;20085;-67
2022/06/04 02:07:30;;;;;;;14.00;8.20;;;10.70;99.90;;;;;;4753566;30;20048;-66
2022/06/04 02:10:14;;;;;;;12.27;8.05;;;10.60;99.90;;;;;;4769964;30;20055;-67
2022/06/04 02:12:45;;;;;;;13.98;8.13;;;10.60;99.90;;;;;;4769204;30;20451;-67
2022/06/04 02:15:17;;;;;;;14.68;8.23;;;10.60;99.90;;;;;;4770008;30;20493;-67
2022/06/04 02:17:46;;;;;;;17.27;9.13;;;10.50;99.90;;;;;;4769327;30;20071;-67
2022/06/04 02:20:13;;;;;;;12.73;8.15;;;10.50;99.90;;;;;;4770710;30;20059;-64
2022/06/04 02:22:39;;;;;;;12.18;8.15;;;10.50;99.90;;;;;;4753958;30;20063;-67
2022/06/04 02:25:08;;;;;;;11.68;8.60;;;10.50;99.90;;;;;;4769622;30;20131;-67
2022/06/04 02:27:34;;;;;;;11.65;8.07;;;10.50;99.90;;;;;;4766796;30;20055;-64
2022/06/04 02:30:00;;;;;;;14.93;8.55;;;10.50;99.90;;;;;;4764019;30;20442;-65
2022/06/04 02:32:36;;;;;;;15.10;9.05;;;10.50;99.90;;;;;;4765178;30;20087;-65
2022/06/04 02:35:21;;;;;;;14.68;8.88;;;10.50;99.90;;;;;;4768773;30;20091;-64
2022/06/04 02:38:00;;;;;;;16.65;8.57;;;10.50;99.90;;;;;;4769115;30;20059;-65
2022/06/04 02:40:37;;;;;;;18.48;8.82;;;10.40;99.90;;;;;;4770200;30;20063;-66
2022/06/04 02:43:21;;;;;;;13.55;8.98;;;10.40;99.90;;;;;;4768532;30;20051;-66
2022/06/04 02:45:59;;;;;;;15.00;8.90;;;10.40;99.90;;;;;;4763804;30;20059;-65
2022/06/04 02:48:34;;;;;;;14.85;8.70;;;10.40;99.90;;;;;;4753955;30;20055;-65
2022/06/04 02:51:06;;;;;;;13.30;8.70;;;10.30;99.90;;;;;;4764710;30;20442;-66
2022/06/04 02:53:33;;;;;;;14.95;8.75;;;10.70;99.90;;;;;;4770092;30;20071;-65
2022/06/04 02:56:10;;;;;;;11.35;8.57;;;10.30;99.90;;;;;;4769071;30;20055;-65
2022/06/04 02:58:39;;;;;;;14.82;9.07;;;10.50;99.90;;;;;;4749881;30;20070;-66
2022/06/04 03:01:08;;;;;;;11.57;8.77;;;10.30;99.90;;;;;;4751066;30;20078;-65
2022/06/04 03:03:34;;;;;;;14.57;9.18;;;10.30;99.90;;;;;;4769091;30;20063;-66
2022/06/04 03:06:03;;;;;;;15.70;9.30;;;10.30;99.90;;;;;;4768937;30;20493;-65
2022/06/04 03:08:32;;;;;;;16.50;7.70;;;10.50;99.90;;;;;;4753344;30;20048;-65
2022/06/04 03:10:59;;;;;;;12.30;9.32;;;10.40;99.90;;;;;;4769289;30;20124;-66
2022/06/04 03:13:24;;;;;;;18.15;9.23;;;10.20;99.90;;;;;;4753098;30;20051;-66
2022/06/04 03:15:51;;;;;;;14.30;8.65;;;10.60;99.90;;;;;;4768861;30;20135;-65
2022/06/04 03:18:17;;;;;;;12.90;8.77;;;11.00;99.90;;;;;;4737969;30;20058;-65
2022/06/04 03:20:43;;;;;;;15.23;8.85;;;10.20;99.90;;;;;;4769682;30;20059;-66
2022/06/04 03:23:09;;;;;;;14.75;8.30;;;10.30;99.90;;;;;;4769369;30;20051;-65
2022/06/04 03:25:36;;;;;;;14.07;8.80;;;10.20;99.90;;;;;;4768919;30;20052;-66
2022/06/04 03:28:03;;;;;;;11.88;8.93;;;10.20;99.90;;;;;;4767476;30;20048;-65
2022/06/04 03:30:28;;;;;;;15.07;8.98;;;10.30;99.90;;;;;;4751395;30;20122;-66
2022/06/04 03:32:55;;;;;;;17.98;8.65;;;10.50;99.90;;;;;;4769209;30;20511;-65
2022/06/04 03:35:21;;;;;;;14.00;8.63;;;10.20;99.90;;;;;;4768451;30;20059;-65
2022/06/04 03:37:47;;;;;;;15.57;8.57;;;10.20;99.90;;;;;;4769285;30;20056;-65
2022/06/04 03:40:12;;;;;;;13.07;8.32;;;10.20;99.90;;;;;;4769550;30;20124;-66
2022/06/04 03:42:38;;;;;;;13.85;8.30;;;10.40;99.90;;;;;;4767790;30;20472;-66
2022/06/04 03:45:06;;;;;;;15.20;7.90;;;10.30;99.90;;;;;;4768952;30;20075;-65
2022/06/04 03:47:38;;;;;;;12.13;8.23;;;10.30;99.90;;;;;;4768283;30;20486;-65
2022/06/04 03:50:13;;;;;;;10.13;7.47;;;10.30;99.90;;;;;;4769384;30;20044;-65
2022/06/04 03:52:40;;;;;;;12.68;7.95;;;10.30;99.90;;;;;;4772814;30;20052;-66
2022/06/04 03:55:08;;;;;;;13.55;8.48;;;10.70;99.90;;;;;;4772665;30;20117;-66
2022/06/04 03:57:44;;;;;;;12.18;8.32;;;10.30;99.90;;;;;;4755486;30;20059;-66
2022/06/04 04:00:30;;;;;;;12.07;8.00;;;10.30;99.90;;;;;;4771481;30;20048;-66
2022/06/04 04:03:01;;;;;;;12.38;7.53;;;10.30;99.90;;;;;;4760408;30;20501;-66
2022/06/04 04:05:33;;;;;;;10.90;7.32;;;10.20;99.90;;;;;;4756081;30;20052;-66
2022/06/04 04:08:01;;;;;;;20.50;8.27;;;10.50;99.90;;;;;;4772221;30;20086;-66
2022/06/04 04:10:28;;;;;;;13.75;7.07;;;10.50;99.90;;;;;;4771663;30;20510;-66
2022/06/04 04:12:55;;;;;;;13.60;7.40;;;10.50;99.90;;;;;;4770587;30;20052;-66
2022/06/04 04:15:21;;;;;;;8.73;6.85;;;10.50;99.90;;;;;;4770711;30;20530;-65
2022/06/04 04:17:47;;;;;;;11.25;6.90;;;10.60;99.90;;;;;;4771507;30;20090;-65
2022/06/04 04:20:27;;;;;;;11.32;7.40;;;10.50;99.90;;;;;;4770910;30;20051;-66
2022/06/04 04:22:54;;;;;;;13.65;7.47;;;10.60;99.90;;;;;;4772051;30;20454;-66
2022/06/04 04:25:22;;;;;;;10.52;7.13;;;11.10;99.90;;;;;;4772231;30;20454;-66
2022/06/04 04:27:48;;;;;;;9.77;7.18;;;11.00;99.90;;;;;;4771134;30;20075;-66
2022/06/04 04:30:17;;;;;;;12.20;6.50;;;10.80;99.90;;;;;;4769295;30;20052;-65
2022/06/04 04:32:43;;;;;;;12.00;6.30;;;10.80;99.90;;;;;;4770942;30;20062;-65
2022/06/04 04:35:15;;;;;;;11.77;7.00;;;10.80;99.90;;;;;;4770439;30;20044;-66
2022/06/04 04:37:42;;;;;;;12.13;6.28;;;10.80;99.90;;;;;;4771757;30;20198;-65
2022/06/04 04:40:10;;;;;;;8.73;6.38;;;10.90;99.90;;;;;;4771732;30;20549;-66
2022/06/04 04:42:35;;;;;;;12.40;5.97;;;11.00;99.90;;;;;;4753752;30;20059;-65
2022/06/04 04:45:02;;;;;;;8.60;5.90;;;11.00;99.90;;;;;;4754759;30;20155;-65
2022/06/04 04:47:27;;;;;;;8.00;6.10;;;11.10;99.90;;;;;;4754848;30;20059;-66
2022/06/04 04:49:53;;;;;;;9.05;6.40;;;11.10;99.90;;;;;;4771725;30;20370;-66
2022/06/04 04:52:18;;;;;;;9.02;6.50;;;11.20;99.90;;;;;;4771675;30;20056;-66
2022/06/04 04:54:44;;;;;;;8.25;5.90;;;11.20;99.90;;;;;;4753213;30;20055;-65
2022/06/04 04:57:10;;;;;;;8.40;5.50;;;11.20;99.90;;;;;;4769438;30;20060;-66
2022/06/04 04:59:36;;;;;;;9.88;5.32;;;11.30;99.90;;;;;;4770900;30;20043;-65
2022/06/04 05:02:01;;;;;;;9.68;5.35;;;11.40;99.90;;;;;;4760855;30;20056;-65
2022/06/04 05:04:27;;;;;;;8.18;5.18;;;11.40;99.90;;;;;;4770287;30;20047;-66
2022/06/04 05:06:52;;;;;;;6.65;4.95;;;11.40;99.90;;;;;;4768130;30;20066;-66
2022/06/04 05:09:18;;;;;;;7.43;4.97;;;11.50;99.90;;;;;;4768968;30;20051;-65
2022/06/04 05:11:44;;;;;;;6.63;5.13;;;11.60;99.90;;;;;;4770213;30;20520;-66
2022/06/04 05:14:10;;;;;;;11.38;4.63;;;11.60;99.90;;;;;;4770726;30;20062;-65
2022/06/04 05:16:38;;;;;;;8.88;5.38;;;11.70;99.90;;;;;;4764743;30;20056;-66
2022/06/04 05:19:05;;;;;;;7.63;4.60;;;12.20;99.90;;;;;;4754299;30;20374;-66
2022/06/04 05:21:40;;;;;;;6.65;4.95;;;11.80;99.90;;;;;;4769298;30;20051;-66
2022/06/04 05:24:06;;;;;;;7.03;4.78;;;11.90;99.90;;;;;;4771115;30;20048;-66
2022/06/04 05:26:32;;;;;;;5.18;4.40;;;12.10;99.90;;;;;;4769841;30;20139;-66
2022/06/04 05:28:59;;;;;;;8.02;4.63;;;12.60;99.90;;;;;;4768757;30;20060;-66
2022/06/04 05:31:25;;;;;;;12.10;4.82;;;13.70;99.90;;;;;;4770305;30;20138;-66
2022/06/04 05:33:51;;;;;;;5.90;4.18;;;14.30;99.90;;;;;;4770210;30;20143;-66
2022/06/04 05:36:17;;;;;;;6.22;4.15;;;14.80;99.90;;;;;;4762479;30;20886;-66
2022/06/04 05:38:43;;;;;;;9.32;4.75;;;15.20;99.90;;;;;;4765125;30;20066;-66
2022/06/04 05:41:13;;;;;;;5.95;4.40;;;15.50;99.90;;;;;;4768399;30;20124;-66
2022/06/04 05:43:41;;;;;;;8.15;4.63;;;16.10;99.90;;;;;;4771209;30;20154;-65
2022/06/04 05:46:10;;;;;;;6.10;3.83;;;16.30;99.90;;;;;;4769626;30;20063;-66
2022/06/04 05:48:38;;;;;;;6.38;4.28;;;16.60;99.90;;;;;;4770159;30;20117;-65
2022/06/04 05:51:04;;;;;;;6.40;4.72;;;16.90;99.90;;;;;;4770584;30;20059;-66
2022/06/04 05:53:30;;;;;;;11.98;5.15;;;16.80;99.90;;;;;;4754341;30;20047;-66
2022/06/04 05:55:55;;;;;;;6.70;4.43;;;16.90;99.90;;;;;;4753194;30;20131;-66
2022/06/04 05:58:21;;;;;;;6.10;4.43;;;17.10;99.90;;;;;;4768942;30;20066;-66
2022/06/04 06:00:47;;;;;;;7.43;4.05;;;17.20;99.90;;;;;;4769206;30;20528;-67
2022/06/04 06:03:13;;;;;;;10.38;4.30;;;17.20;99.90;;;;;;4751871;30;20052;-66
2022/06/04 06:05:44;;;;;;;7.35;3.92;;;17.60;99.90;;;;;;4770655;30;20073;-67
2022/06/04 06:08:11;;;;;;;6.82;4.18;;;18.10;99.90;;;;;;4770389;30;20100;-68
2022/06/04 06:10:42;;;;;;;8.35;3.72;;;18.00;99.90;;;;;;4769347;30;20490;-67
2022/06/04 06:13:08;;;;;;;5.35;3.97;;;18.60;99.90;;;;;;4770140;30;20056;-67
2022/06/04 06:15:35;;;;;;;5.60;3.92;;;17.40;99.90;;;;;;4770265;30;20457;-67
2022/06/04 06:18:01;;;;;;;6.22;4.00;;;17.30;99.90;;;;;;4770154;30;20063;-67
2022/06/04 06:20:27;;;;;;;6.93;3.85;;;16.70;99.90;;;;;;4770580;30;20135;-68
2022/06/04 06:22:52;;;;;;;4.38;3.75;;;17.00;99.90;;;;;;4770427;30;20496;-67
2022/06/04 06:25:18;;;;;;;4.35;3.58;;;16.90;99.90;;;;;;4770528;30;20354;-67
2022/06/04 06:27:43;;;;;;;4.78;3.78;;;17.10;99.90;;;;;;4770200;30;20153;-68
2022/06/04 06:30:10;;;;;;;4.38;3.83;;;17.70;99.90;;;;;;4754184;30;20048;-67
2022/06/04 06:32:36;;;;;;;6.03;3.58;;;17.90;99.90;;;;;;4769500;30;20051;-67
2022/06/04 06:35:03;;;;;;;4.63;3.47;;;17.90;99.90;;;;;;4769873;30;20043;-67
2022/06/04 06:37:29;;;;;;;6.88;4.10;;;17.60;99.90;;;;;;4753365;30;20047;-67
2022/06/04 06:39:55;;;;;;;5.32;3.35;;;17.40;99.90;;;;;;4753936;30;20108;-68
2022/06/04 06:42:22;;;;;;;5.10;3.40;;;16.70;99.90;;;;;;4753991;30;20055;-68
2022/06/04 06:44:48;;;;;;;3.95;3.63;;;16.50;99.90;;;;;;4769456;30;20056;-67
2022/06/04 06:47:14;;;;;;;4.75;3.67;;;16.30;99.90;;;;;;4753063;30;20055;-68
2022/06/04 06:49:39;;;;;;;5.68;3.58;;;16.00;99.90;;;;;;4770094;30;20112;-67
2022/06/04 06:52:06;;;;;;;4.32;3.30;;;16.00;99.90;;;;;;4753926;30;20071;-68
2022/06/04 06:54:34;;;;;;;13.82;4.75;;;15.80;99.90;;;;;;4769926;30;20486;-67
2022/06/04 06:57:01;;;;;;;6.10;3.83;;;15.80;99.90;;;;;;4770079;30;20051;-67
2022/06/04 06:59:28;;;;;;;5.43;3.40;;;15.80;99.90;;;;;;4770009;30;20044;-67
2022/06/04 07:01:55;;;;;;;5.35;3.30;;;15.80;99.90;;;;;;4753357;30;20382;-67
2022/06/04 07:04:25;;;;;;;5.28;3.63;;;15.90;99.90;;;;;;4769330;30;20052;-67
2022/06/04 07:06:55;;;;;;;4.95;3.75;;;15.80;99.90;;;;;;4770088;30;20138;-67
2022/06/04 07:09:23;;;;;;;6.43;4.00;;;15.70;99.90;;;;;;4754010;30;20415;-67
2022/06/04 07:11:50;;;;;;;4.22;3.25;;;15.80;99.90;;;;;;4769470;30;20063;-67
2022/06/04 07:14:16;;;;;;;6.45;3.78;;;16.00;99.90;;;;;;4768903;30;20048;-66
2022/06/04 07:16:43;;;;;;;4.57;3.33;;;16.20;99.90;;;;;;4753026;30;20155;-67
2022/06/04 07:19:11;;;;;;;5.22;3.60;;;16.30;99.90;;;;;;4769704;30;20112;-67
2022/06/04 07:21:36;;;;;;;5.10;3.45;;;16.30;99.90;;;;;;4769328;30;20059;-67
2022/06/04 07:24:03;;;;;;;6.22;3.97;;;16.20;99.90;;;;;;4769147;30;20063;-67
2022/06/04 07:26:29;;;;;;;5.82;4.03;;;16.20;99.90;;;;;;4756542;30;20051;-67
2022/06/04 07:28:54;;;;;;;5.85;3.65;;;16.40;99.90;;;;;;4773270;30;20369;-67
2022/06/04 07:31:20;;;;;;;5.35;3.42;;;16.60;99.90;;;;;;4757239;30;20071;-67
2022/06/04 07:33:48;;;;;;;5.35;3.13;;;16.80;99.90;;;;;;4757319;30;20543;-68
2022/06/04 07:36:29;;;;;;;5.45;3.50;;;16.80;99.90;;;;;;4773022;30;20048;-67
2022/06/04 07:38:55;;;;;;;4.82;3.50;;;16.90;99.90;;;;;;4772778;30;20083;-68
2022/06/04 07:41:24;;;;;;;4.28;3.65;;;17.00;99.90;;;;;;4771747;30;20517;-67
2022/06/04 07:43:50;;;;;;;4.32;3.40;;;17.30;99.90;;;;;;4772651;30;20103;-67
2022/06/04 07:46:16;;;;;;;4.80;3.78;;;17.40;99.90;;;;;;4772045;30;20051;-66
2022/06/04 07:48:42;;;;;;;4.95;3.80;;;17.60;99.90;;;;;;4772605;30;20527;-67
2022/06/04 07:51:08;;;;;;;5.57;3.55;;;17.60;99.90;;;;;;4773082;30;20095;-68
2022/06/04 07:53:34;;;;;;;7.05;3.78;;;17.50;99.90;;;;;;4772630;30;20464;-67
2022/06/04 07:56:05;;;;;;;4.85;3.92;;;17.30;99.90;;;;;;4772257;30;20055;-67
2022/06/04 07:58:31;;;;;;;5.03;3.67;;;17.40;99.90;;;;;;4772294;30;20066;-67
2022/06/04 08:00:57;;;;;;;5.30;3.30;;;17.30;99.90;;;;;;4772401;30;20055;-66
2022/06/04 08:03:24;;;;;;;7.13;4.15;;;17.20;99.90;;;;;;4772756;30;20091;-70
2022/06/04 08:05:51;;;;;;;4.97;3.50;;;17.00;99.90;;;;;;4772352;30;20062;-67
2022/06/04 08:08:16;;;;;;;5.28;3.63;;;16.90;99.90;;;;;;4756553;30;20393;-67
2022/06/04 08:10:46;;;;;;;4.05;3.53;;;16.90;99.90;;;;;;4772139;30;20047;-69
2022/06/04 08:13:14;;;;;;;4.78;3.80;;;17.00;99.90;;;;;;4772029;30;20074;-67
2022/06/04 08:15:42;;;;;;;4.80;3.65;;;16.90;99.90;;;;;;4756574;30;20126;-67
2022/06/04 08:18:08;;;;;;;4.18;3.40;;;17.00;99.90;;;;;;4772010;30;20089;-66
2022/06/04 08:20:34;;;;;;;5.20;3.83;;;17.30;99.90;;;;;;4772254;30;20060;-66
2022/06/04 08:22:59;;;;;;;6.07;3.88;;;17.50;99.90;;;;;;4772224;30;20051;-66
2022/06/04 08:25:25;;;;;;;6.80;4.30;;;17.50;99.90;;;;;;4756393;30;20117;-66
2022/06/04 08:27:50;;;;;;;6.85;4.20;;;17.50;99.90;;;;;;4771618;30;20060;-66
2022/06/04 08:30:16;;;;;;;4.70;3.60;;;17.50;99.90;;;;;;4772010;30;20048;-66
2022/06/04 08:32:42;;;;;;;4.15;3.75;;;17.50;99.90;;;;;;4771394;30;20162;-66
2022/06/04 08:35:08;;;;;;;5.03;4.03;;;17.60;99.90;;;;;;4771377;30;20062;-66
2022/06/04 08:37:33;;;;;;;6.82;3.85;;;17.60;99.90;;;;;;4771764;30;20516;-67
2022/06/04 08:40:00;;;;;;;6.38;4.10;;;17.70;99.90;;;;;;4756058;30;20055;-66
2022/06/04 08:42:46;;;;;;;5.25;3.63;;;17.70;99.90;;;;;;4771916;30;20138;-66
2022/06/04 08:45:12;;;;;;;5.53;3.67;;;17.80;99.90;;;;;;4771905;30;20486;-68
2022/06/04 08:47:49;;;;;;;3.90;3.38;;;17.80;99.90;;;;;;4771062;30;20051;-65
2022/06/04 08:50:24;;;;;;;4.20;3.58;;;17.90;99.90;;;;;;4771614;30;20131;-66
2022/06/04 08:52:54;;;;;;;5.38;4.00;;;17.90;99.90;;;;;;4756131;30;20055;-67
2022/06/04 08:58:28;;;;;;;5.13;3.45;;;17.70;99.90;;;;;;4771832;30;20141;-67
2022/06/04 09:01:00;;;;;;;4.05;3.70;;;17.90;99.90;;;;;;4770939;30;20070;-67
2022/06/04 09:03:38;;;;;;;5.55;3.55;;;18.00;99.90;;;;;;4755142;30;20052;-65
2022/06/04 09:06:11;;;;;;;3.67;3.30;;;18.10;99.90;;;;;;4771725;30;20058;-66
2022/06/04 09:09:03;;;;;;;4.85;3.40;;;18.10;99.90;;;;;;4755683;30;20478;-66
2022/06/04 09:11:57;;;;;;;3.83;3.38;;;18.20;99.90;;;;;;4771924;30;20324;-66
2022/06/04 09:14:57;;;;;;;4.85;3.40;;;18.30;99.90;;;;;;4755293;30;20066;-66
2022/06/04 09:17:37;;;;;;;4.78;3.60;;;18.50;99.90;;;;;;4770821;30;20044;-66
2022/06/04 09:20:26;;;;;;;6.70;3.40;;;18.80;99.90;;;;;;4770899;30;20071;-66
2022/06/04 09:22:57;;;;;;;4.10;3.42;;;19.00;99.90;;;;;;4769750;30;20047;-66
2022/06/04 09:25:26;;;;;;;4.53;3.67;;;19.00;99.90;;;;;;4770227;30;20427;-66
2022/06/04 09:28:06;;;;;;;4.00;3.63;;;19.00;99.90;;;;;;4755182;30;20087;-67
2022/06/04 09:30:42;;;;;;;4.03;3.63;;;18.80;99.90;;;;;;4770235;30;20233;-66
2022/06/04 09:33:18;;;;;;;4.22;3.80;;;18.60;99.90;;;;;;4771325;30;20056;-66
2022/06/04 09:35:44;;;;;;;4.90;3.65;;;18.60;99.90;;;;;;4771481;30;20055;-67
2022/06/04 09:38:29;;;;;;;3.58;3.20;;;18.70;99.90;;;;;;4771292;30;20474;-66
2022/06/04 09:41:04;;;;;;;3.78;3.40;;;19.00;99.90;;;;;;4771040;30;20130;-65
2022/06/04 09:43:30;;;;;;;5.28;4.10;;;19.20;99.90;;;;;;4754789;30;20059;-65
2022/06/04 09:45:59;;;;;;;5.18;3.72;;;19.20;99.90;;;;;;4770218;30;20070;-67
2022/06/04 09:48:31;;;;;;;4.93;3.60;;;19.20;99.90;;;;;;4754620;30;20138;-67
2022/06/04 09:51:01;;;;;;;4.13;3.72;;;19.10;99.90;;;;;;4761191;30;20044;-67
2022/06/04 09:53:33;;;;;;;4.68;3.78;;;19.10;99.90;;;;;;4753261;30;20055;-67
2022/06/04 09:56:07;;;;;;;7.15;3.83;;;19.20;99.90;;;;;;4769913;30;20051;-67
2022/06/04 09:58:46;;;;;;;4.20;3.78;;;19.20;99.90;;;;;;4768337;30;20413;-68
2022/06/04 10:01:14;;;;;;;4.75;3.53;;;19.30;99.90;;;;;;4741015;30;20493;-67
2022/06/04 10:03:41;;;;;;;4.00;3.35;;;19.40;99.90;;;;;;4737155;30;20067;-67
2022/06/04 10:06:12;;;;;;;4.45;3.50;;;19.70;99.90;;;;;;4757791;30;20051;-67
2022/06/04 10:11:33;;;;;;;4.22;3.35;;;19.60;99.90;;;;;;4770447;30;20434;-68
2022/06/04 10:13:59;;;;;;;5.18;3.70;;;19.70;99.90;;;;;;4768822;30;20055;-67
2022/06/04 10:16:27;;;;;;;3.85;3.42;;;19.80;99.90;;;;;;4770056;30;20063;-67
2022/06/04 10:18:55;;;;;;;4.60;3.40;;;19.90;99.90;;;;;;4754459;30;20141;-68
2022/06/04 10:21:34;;;;;;;4.85;3.35;;;20.10;99.90;;;;;;4769273;30;20432;-65
2022/06/04 10:24:04;;;;;;;3.72;3.30;;;20.30;99.90;;;;;;4754294;30;20194;-65
2022/06/04 10:27:07;;;;;;;4.18;3.75;;;20.90;99.90;;;;;;4752593;30;20071;-68
2022/06/04 10:29:41;;;;;;;5.10;3.90;;;20.30;97.50;;;;;;4769875;30;20124;-65
2022/06/04 10:32:25;;;;;;;6.07;3.28;;;20.10;99.90;;;;;;4753272;30;20398;-65
2022/06/04 10:34:53;;;;;;;7.18;3.92;;;20.10;99.90;;;;;;4765961;30;20124;-66
2022/06/04 10:37:22;;;;;;;4.07;3.53;;;20.20;99.90;;;;;;4767054;30;20070;-65
2022/06/04 10:40:09;;;;;;;3.55;3.25;;;20.20;99.90;;;;;;4769143;30;20371;-65
2022/06/04 10:42:47;;;;;;;3.90;3.50;;;20.20;99.90;;;;;;4766707;30;20122;-64
2022/06/04 10:45:28;;;;;;;4.15;3.30;;;20.20;99.90;;;;;;4767966;30;20052;-65
2022/06/04 10:48:43;;;;;;;5.05;3.15;;;20.20;99.90;;;;;;4767956;30;20123;-66
2022/06/04 10:51:26;;;;;;;6.05;3.35;;;20.40;99.90;;;;;;4753658;30;20058;-66
2022/06/04 10:53:59;;;;;;;3.63;2.80;;;20.60;99.90;;;;;;4768325;30;20059;-67
2022/06/04 10:59:40;;;;;;;3.47;3.10;;;20.90;99.90;;;;;;4765940;30;20446;-66
2022/06/04 11:02:20;;;;;;;4.75;3.22;;;21.10;99.90;;;;;;4767914;30;20044;-66
2022/06/04 11:04:54;;;;;;;5.35;3.10;;;20.90;99.90;;;;;;4768512;30;20058;-65
2022/06/04 11:07:57;;;;;;;6.03;3.10;;;21.10;99.10;;;;;;4769804;30;20106;-66
2022/06/04 11:11:14;;;;;;;4.18;2.95;;;20.70;98.80;;;;;;4767483;30;20432;-67
2022/06/04 11:13:52;;;;;;;3.10;2.78;;;20.80;97.60;;;;;;4767370;30;20078;-67
2022/06/04 11:16:45;;;;;;;3.75;3.20;;;20.70;96.60;;;;;;4743941;30;20344;-66
2022/06/04 11:19:22;;;;;;;4.63;2.70;;;20.80;95.70;;;;;;4767388;30;20130;-67
2022/06/04 11:21:59;;;;;;;3.22;2.53;;;21.00;96.00;;;;;;4730747;30;20052;-66
2022/06/04 11:24:34;;;;;;;4.03;3.05;;;20.80;96.60;;;;;;4749642;30;20083;-66
2022/06/04 11:27:11;;;;;;;3.33;2.92;;;20.80;95.30;;;;;;4734879;30;20497;-66
2022/06/04 11:29:38;;;;;;;5.22;3.05;;;20.80;93.20;;;;;;4734189;30;20060;-67
2022/06/04 11:32:18;;;;;;;3.22;2.75;;;20.80;93.50;;;;;;4749325;30;20123;-67
2022/06/04 11:35:15;;;;;;;3.22;2.88;;;20.80;85.40;;;;;;4749870;30;20087;-66
2022/06/04 11:38:08;;;;;;;3.15;2.85;;;20.70;93.50;;;;;;4749051;30;20052;-67
2022/06/04 11:41:05;;;;;;;5.20;3.08;;;20.80;93.80;;;;;;4737738;30;20060;-67
2022/06/04 11:43:48;;;;;;;2.95;2.50;;;20.60;90.40;;;;;;4768811;30;20055;-67
2022/06/04 11:47:02;;;;;;;5.07;3.22;;;20.50;92.80;;;;;;4769065;30;20056;-68
2022/06/04 11:49:40;;;;;;;6.40;2.60;;;20.50;83.00;;;;;;4761045;30;20091;-67
2022/06/04 11:52:15;;;;;;;3.00;2.75;;;20.50;94.60;;;;;;4769255;30;20362;-67
2022/06/04 11:54:54;;;;;;;3.92;3.05;;;20.60;92.80;;;;;;4753684;30;20526;-67
2022/06/04 11:57:42;;;;;;;3.42;2.92;;;20.50;93.90;;;;;;4768490;30;20083;-68
2022/06/04 12:00:34;;;;;;;3.88;2.97;;;20.50;93.80;;;;;;4769610;30;20091;-67
2022/06/04 12:03:25;;;;;;;3.45;2.85;;;20.50;94.20;;;;;;4768990;30;20055;-67
2022/06/04 12:06:00;;;;;;;3.10;2.80;;;20.60;98.10;;;;;;4759853;30;20099;-69
2022/06/04 12:08:35;;;;;;;3.33;2.92;;;20.80;95.80;;;;;;4767996;30;20052;-66
2022/06/04 12:11:33;;;;;;;4.03;3.17;;;21.00;95.20;;;;;;4770355;30;20479;-67
2022/06/04 12:14:24;;;;;;;3.53;2.88;;;20.90;92.30;;;;;;4770394;30;20121;-67
2022/06/04 12:17:25;;;;;;;4.53;3.00;;;20.90;95.90;;;;;;4768294;30;20043;-67
2022/06/04 12:26:38;;;;;;;3.33;2.90;;;20.60;95.70;;;;;;4769469;30;20134;-67
2022/06/04 12:29:29;;;;;;;5.28;3.03;;;21.10;97.80;;;;;;4772373;30;20305;-67
2022/06/04 12:32:06;;;;;;;3.92;2.60;;;21.20;96.00;;;;;;4771393;30;20489;-67
2022/06/04 12:34:39;;;;;;;3.45;2.80;;;21.20;95.60;;;;;;4755314;30;20195;-67
2022/06/04 12:37:19;;;;;;;4.82;2.72;;;21.30;94.50;;;;;;4755559;30;20058;-67
2022/06/04 12:39:45;;;;;;;3.20;2.80;;;21.10;92.70;;;;;;4755788;30;20067;-67
2022/06/04 12:42:24;;;;;;;4.05;2.70;;;21.10;92.50;;;;;;4768811;30;20055;-66
2022/06/04 12:45:02;;;;;;;3.03;2.53;;;21.10;90.30;;;;;;4772142;30;20056;-67
2022/06/04 12:47:34;;;;;;;4.75;3.22;;;21.10;93.60;;;;;;4770928;30;20070;-67
2022/06/04 12:50:18;;;;;;;3.78;3.03;;;21.30;92.80;;;;;;4772186;30;20064;-67
2022/06/04 12:52:46;;;;;;;6.30;2.75;;;21.30;90.90;;;;;;4771524;30;20098;-67
2022/06/04 12:55:27;;;;;;;4.15;2.65;;;21.20;92.10;;;;;;4755831;30;20071;-67
2022/06/04 12:58:27;;;;;;;7.25;3.10;;;21.30;92.30;;;;;;4754288;30;20383;-68
2022/06/04 13:01:23;;;;;;;3.22;2.72;;;21.30;90.50;;;;;;4770860;30;20091;-67
2022/06/04 13:04:06;;;;;;;3.03;2.58;;;21.40;79.00;;;;;;4770747;30;20100;-66
2022/06/04 13:06:39;;;;;;;5.05;2.83;;;21.30;86.70;;;;;;4770615;30;20060;-67
2022/06/04 13:09:36;;;;;;;3.58;2.80;;;21.30;86.10;;;;;;4762167;30;20105;-67
2022/06/04 13:12:33;;;;;;;3.00;2.53;;;21.40;86.70;;;;;;4768882;30;20071;-67
2022/06/04 13:15:30;;;;;;;3.17;2.35;;;21.40;89.80;;;;;;4770306;30;20474;-67
2022/06/04 13:17:56;;;;;;;4.38;2.70;;;21.30;91.70;;;;;;4769329;30;20056;-67
2022/06/04 13:20:44;;;;;;;3.90;2.60;;;21.40;93.40;;;;;;4770619;30;20375;-68
2022/06/04 13:23:22;;;;;;;3.25;2.45;;;21.40;94.00;;;;;;4762914;30;20071;-67
2022/06/04 13:26:19;;;;;;;3.30;3.00;;;21.50;93.30;;;;;;4755352;30;20081;-67
2022/06/04 13:28:49;;;;;;;3.28;2.67;;;21.40;91.80;;;;;;4771879;30;20106;-67
2022/06/04 13:31:24;;;;;;;3.95;2.80;;;21.30;93.80;;;;;;4753854;30;20059;-67
2022/06/04 13:33:52;;;;;;;3.95;2.80;;;21.40;93.10;;;;;;4770816;30;20056;-67
2022/06/04 13:36:28;;;;;;;3.15;2.75;;;21.20;92.40;;;;;;4771037;30;20486;-68
2022/06/04 13:38:59;;;;;;;5.95;3.05;;;21.10;95.50;;;;;;4771213;30;20146;-68